createdAt,value
2022-08-23T00:02:29.017Z,63.82
2022-08-23T00:05:09.368Z,64.12
2022-08-23T00:07:40.569Z,64.40
2022-08-23T00:10:09.727Z,64.60
2022-08-23T00:12:38.121Z,64.88
2022-08-23T00:15:07.538Z,64.58
2022-08-23T00:17:36.535Z,64.81
2022-08-23T00:20:05.168Z,65.25
2022-08-23T00:22:32.892Z,65.11
2022-08-23T00:25:01.942Z,65.24
2022-08-23T00:27:29.897Z,66.73
2022-08-23T00:29:58.596Z,66.05
2022-08-23T00:32:28.532Z,65.23
2022-08-23T00:34:56.427Z,64.81
2022-08-23T00:37:24.805Z,64.73
2022-08-23T00:39:52.741Z,65.18
2022-08-23T00:42:48.879Z,65.47
2022-08-23T00:45:37.452Z,65.26
2022-08-23T00:48:06.940Z,65.16
2022-08-23T00:50:39.527Z,65.98
2022-08-23T00:53:11.996Z,66.07
2022-08-23T00:55:42.736Z,65.67
2022-08-23T00:58:12.616Z,65.35
2022-08-23T01:00:40.467Z,64.69
2022-08-23T01:03:11.160Z,65.44
2022-08-23T01:05:46.127Z,64.64
2022-08-23T01:08:13.828Z,65.08
2022-08-23T01:10:44.297Z,65.14
2022-08-23T01:13:19.464Z,64.43
2022-08-23T01:15:49.664Z,63.72
2022-08-23T01:18:20.515Z,63.53
2022-08-23T01:20:52.375Z,63.27
2022-08-23T01:23:29.153Z,63.54
2022-08-23T01:25:58.185Z,63.23
2022-08-23T01:28:25.989Z,62.66
2022-08-23T01:30:53.869Z,63.05
2022-08-23T01:33:22.200Z,63.35
2022-08-23T01:35:52.816Z,63.22
2022-08-23T01:38:20.848Z,64.00
2022-08-23T01:40:50.205Z,64.33
2022-08-23T01:43:19.754Z,64.69
2022-08-23T01:45:47.937Z,63.62
2022-08-23T01:48:16.562Z,64.39
2022-08-23T01:50:45.164Z,66.42
2022-08-23T01:53:13.213Z,66.29
2022-08-23T01:55:42.198Z,65.47
2022-08-23T01:58:11.351Z,65.91
2022-08-23T02:00:41.365Z,65.39
2022-08-23T02:03:10.920Z,64.81
2022-08-23T02:05:40.279Z,65.40
2022-08-23T02:08:26.636Z,65.44
2022-08-23T02:10:54.841Z,64.93
2022-08-23T02:13:24.284Z,65.05
2022-08-23T02:15:52.417Z,65.23
2022-08-23T02:18:21.803Z,66.01
2022-08-23T02:20:51.363Z,66.08
2022-08-23T02:23:20.264Z,67.27
2022-08-23T02:25:48.109Z,67.00
2022-08-23T02:28:15.857Z,67.25
2022-08-23T02:30:46.569Z,67.26
2022-08-23T02:33:15.888Z,66.35
2022-08-23T02:35:45.117Z,67.38
2022-08-23T02:38:13.649Z,66.74
2022-08-23T02:40:42.284Z,67.99
2022-08-23T02:43:11.331Z,67.65
2022-08-23T02:45:42.232Z,67.64
2022-08-23T02:48:13.389Z,67.24
2022-08-23T02:50:43.523Z,66.18
2022-08-23T02:53:11.525Z,66.95
2022-08-23T02:55:39.245Z,66.35
2022-08-23T02:58:07.031Z,67.78
2022-08-23T03:00:34.754Z,67.38
2022-08-23T03:03:04.430Z,67.25
2022-08-23T03:05:33.818Z,65.95
2022-08-23T03:08:03.075Z,66.55
2022-08-23T03:10:31.079Z,66.74
2022-08-23T03:12:58.888Z,67.03
2022-08-23T03:15:26.705Z,67.66
2022-08-23T03:17:54.448Z,69.13
2022-08-23T03:20:22.551Z,68.23
2022-08-23T03:22:54.757Z,68.94
2022-08-23T03:25:22.935Z,67.97
2022-08-23T03:27:50.736Z,67.95
2022-08-23T03:30:19.928Z,67.82
2022-08-23T03:32:49.180Z,68.64
2022-08-23T03:35:17.521Z,68.29
2022-08-23T03:37:45.244Z,67.51
2022-08-23T03:40:14.612Z,67.34
2022-08-23T03:42:42.360Z,67.49
2022-08-23T03:45:10.893Z,66.54
2022-08-23T03:47:39.167Z,66.05
2022-08-23T03:50:07.818Z,67.51
2022-08-23T03:52:35.536Z,68.35
2022-08-23T03:55:03.248Z,68.06
2022-08-23T03:57:32.325Z,67.80
2022-08-23T04:00:00.496Z,67.33
2022-08-23T04:02:28.472Z,66.76
2022-08-23T04:04:57.888Z,66.27
2022-08-23T04:07:25.734Z,66.82
2022-08-23T04:09:55.299Z,67.00
2022-08-23T04:12:23.343Z,68.63
2022-08-23T04:14:53.378Z,66.87
2022-08-23T04:17:21.536Z,67.29
2022-08-23T04:19:49.376Z,70.06
2022-08-23T04:22:19.376Z,69.25
2022-08-23T04:24:47.920Z,70.28
2022-08-23T04:27:15.722Z,70.46
2022-08-23T04:29:43.452Z,69.30
2022-08-23T04:32:12.717Z,69.33
2022-08-23T04:34:42.241Z,68.89
2022-08-23T04:37:13.626Z,69.81
2022-08-23T04:40:00.986Z,68.97
2022-08-23T04:42:32.172Z,69.79
2022-08-23T04:45:01.135Z,71.98
2022-08-23T04:47:34.732Z,71.55
2022-08-23T04:50:04.154Z,70.78
2022-08-23T04:52:31.916Z,71.29
2022-08-23T04:54:59.686Z,71.14
2022-08-23T04:57:27.400Z,71.42
2022-08-23T04:59:55.157Z,71.74
2022-08-23T05:02:22.899Z,72.01
2022-08-23T05:04:51.950Z,71.10
2022-08-23T05:07:19.639Z,72.59
2022-08-23T05:09:59.621Z,73.21
2022-08-23T05:12:28.113Z,72.60
2022-08-23T05:14:55.796Z,73.22
2022-08-23T05:17:23.544Z,73.21
2022-08-23T05:19:52.713Z,73.28
2022-08-23T05:22:20.514Z,74.02
2022-08-23T05:24:48.239Z,73.94
2022-08-23T05:27:15.970Z,72.79
2022-08-23T05:29:43.665Z,72.69
2022-08-23T05:32:11.598Z,72.55
2022-08-23T05:34:39.384Z,72.61
2022-08-23T05:37:08.465Z,72.89
2022-08-23T05:39:37.346Z,73.29
2022-08-23T05:42:05.588Z,72.61
2022-08-23T05:44:36.398Z,72.78
2022-08-23T05:47:10.780Z,72.87
2022-08-23T05:49:39.569Z,72.42
2022-08-23T05:52:11.595Z,71.92
2022-08-23T05:54:39.786Z,72.14
2022-08-23T05:57:07.585Z,72.38
2022-08-23T05:59:35.485Z,72.78
2022-08-23T06:02:04.586Z,72.49
2022-08-23T06:04:32.911Z,72.63
2022-08-23T06:07:00.656Z,72.72
2022-08-23T06:09:29.741Z,72.36
2022-08-23T06:11:58.589Z,71.76
2022-08-23T06:14:26.420Z,72.71
2022-08-23T06:16:56.201Z,71.88
2022-08-23T06:19:24.820Z,71.80
2022-08-23T06:21:53.099Z,71.66
2022-08-23T06:24:21.572Z,72.30
2022-08-23T06:26:50.649Z,71.96
2022-08-23T06:29:19.937Z,71.92
2022-08-23T06:31:49.979Z,71.15
2022-08-23T06:34:21.128Z,70.72
2022-08-23T06:36:49.643Z,71.02
2022-08-23T06:39:18.805Z,71.69
2022-08-23T06:41:48.442Z,70.85
2022-08-23T06:44:18.440Z,70.64
2022-08-23T06:46:47.851Z,71.24
2022-08-23T06:49:16.132Z,70.45
2022-08-23T06:51:46.762Z,70.84
2022-08-23T06:54:16.240Z,70.77
2022-08-23T06:56:44.616Z,70.31
2022-08-23T06:59:12.385Z,70.95
2022-08-23T07:01:46.225Z,70.13
2022-08-23T07:04:17.415Z,70.10
2022-08-23T07:06:45.455Z,70.38
2022-08-23T07:09:13.476Z,70.16
2022-08-23T07:11:41.862Z,70.22
2022-08-23T07:14:12.219Z,70.60
2022-08-23T07:16:44.903Z,69.87
2022-08-23T07:19:13.728Z,70.42
2022-08-23T07:21:41.891Z,70.35
2022-08-23T07:24:10.055Z,70.28
2022-08-23T07:26:39.143Z,69.76
2022-08-23T07:29:07.277Z,70.11
2022-08-23T07:31:36.723Z,68.93
2022-08-23T07:34:06.746Z,68.34
2022-08-23T07:36:35.975Z,67.88
2022-08-23T07:39:05.408Z,68.26
2022-08-23T07:41:33.285Z,68.40
2022-08-23T07:44:04.410Z,68.54
2022-08-23T07:46:33.635Z,67.84
2022-08-23T07:49:04.301Z,67.48
2022-08-23T07:51:34.720Z,66.44
2022-08-23T07:54:03.482Z,65.50
2022-08-23T07:59:03.560Z,64.23
2022-08-23T08:01:31.747Z,63.47
2022-08-23T08:04:03.540Z,63.39
2022-08-23T08:06:34.997Z,63.82
2022-08-23T08:09:05.936Z,62.91
2022-08-23T08:11:35.706Z,62.95
2022-08-23T08:14:05.365Z,62.72
2022-08-23T08:16:36.204Z,62.13
2022-08-23T08:19:08.014Z,61.93
2022-08-23T08:21:39.721Z,62.08
2022-08-23T08:24:12.820Z,62.32
2022-08-23T08:26:40.977Z,62.79
2022-08-23T08:29:11.856Z,62.82
2022-08-23T08:31:40.712Z,62.77
2022-08-23T08:34:08.725Z,62.64
2022-08-23T08:36:39.854Z,63.58
2022-08-23T08:39:10.441Z,62.79
2022-08-23T08:41:51.206Z,62.49
2022-08-23T08:44:40.293Z,61.58
2022-08-23T08:47:11.248Z,60.37
2022-08-23T08:49:41.473Z,61.46
2022-08-23T08:52:16.399Z,59.93
2022-08-23T08:54:48.299Z,59.48
2022-08-23T08:57:24.544Z,60.76
2022-08-23T08:59:57.692Z,61.01
2022-08-23T09:02:33.119Z,60.55
2022-08-23T09:05:03.111Z,59.17
2022-08-23T09:07:42.116Z,59.48
2022-08-23T09:10:31.622Z,60.38
2022-08-23T09:13:12.050Z,60.61
2022-08-23T09:15:42.770Z,60.13
2022-08-23T09:18:13.531Z,59.86
2022-08-23T09:20:43.329Z,59.53
2022-08-23T09:23:15.653Z,60.20
2022-08-23T09:25:52.633Z,59.74
2022-08-23T09:28:20.427Z,60.67
2022-08-23T09:30:51.261Z,58.91
2022-08-23T09:33:21.435Z,59.11
2022-08-23T09:36:06.449Z,58.73
2022-08-23T09:38:35.636Z,57.73
2022-08-23T09:41:19.809Z,58.08
2022-08-23T09:43:49.840Z,58.48
2022-08-23T09:46:26.727Z,57.98
2022-08-23T09:48:58.105Z,58.39
2022-08-23T09:51:28.388Z,58.22
2022-08-23T09:54:08.375Z,57.72
2022-08-23T09:56:39.899Z,58.70
2022-08-23T09:59:22.236Z,57.04
2022-08-23T10:01:56.371Z,58.05
2022-08-23T10:04:26.346Z,56.62
2022-08-23T10:06:54.122Z,57.29
2022-08-23T10:09:28.666Z,56.75
2022-08-23T10:11:57.585Z,57.45
2022-08-23T10:14:30.054Z,56.89
2022-08-23T10:17:04.849Z,55.49
2022-08-23T10:19:41.650Z,54.69
2022-08-23T10:22:16.349Z,55.72
2022-08-23T10:24:49.668Z,56.14
2022-08-23T10:27:45.287Z,55.71
2022-08-23T10:30:14.593Z,53.54
2022-08-23T10:33:02.564Z,53.54
2022-08-23T10:35:38.468Z,55.09
2022-08-23T10:38:32.710Z,53.59
2022-08-23T10:41:05.045Z,53.88
2022-08-23T10:43:38.829Z,54.23
2022-08-23T10:46:08.437Z,54.17
2022-08-23T10:48:40.600Z,53.73
2022-08-23T10:51:13.033Z,52.81
2022-08-23T10:53:46.646Z,52.52
2022-08-23T10:56:19.157Z,53.65
2022-08-23T10:58:49.431Z,54.05
2022-08-23T11:01:21.776Z,53.51
2022-08-23T11:03:58.069Z,51.63
2022-08-23T11:06:47.899Z,52.94
2022-08-23T11:09:38.719Z,51.61
2022-08-23T11:12:27.387Z,51.75
2022-08-23T11:15:11.184Z,50.96
2022-08-23T11:17:44.833Z,51.79
2022-08-23T11:20:14.961Z,52.92
2022-08-23T11:23:16.261Z,53.05
2022-08-23T11:25:45.853Z,52.58
2022-08-23T11:28:40.226Z,51.15
2022-08-23T11:31:22.558Z,51.38
2022-08-23T11:33:52.997Z,51.47
2022-08-23T11:36:23.744Z,51.41
2022-08-23T11:39:07.881Z,51.44
2022-08-23T11:41:36.588Z,51.37
2022-08-23T11:44:24.553Z,52.53
2022-08-23T11:47:00.072Z,51.07
2022-08-23T11:50:01.315Z,50.54
2022-08-23T11:52:47.316Z,51.25
2022-08-23T11:55:25.106Z,49.83
2022-08-23T11:58:02.821Z,49.63
2022-08-23T12:00:54.305Z,50.51
2022-08-23T12:03:25.562Z,49.97
2022-08-23T12:06:16.007Z,49.73
2022-08-23T12:08:50.857Z,50.16
2022-08-23T12:11:19.899Z,49.11
2022-08-23T12:14:02.565Z,49.44
2022-08-23T12:16:38.648Z,48.41
2022-08-23T12:19:22.192Z,48.26
2022-08-23T12:21:55.860Z,49.27
2022-08-23T12:24:26.700Z,49.37
2022-08-23T12:27:01.568Z,48.87
2022-08-23T12:29:36.193Z,51.00
2022-08-23T12:32:11.232Z,48.28
2022-08-23T12:34:47.473Z,48.91
2022-08-23T12:37:23.030Z,48.02
2022-08-23T12:39:52.847Z,48.57
2022-08-23T12:42:27.027Z,47.75
2022-08-23T12:45:05.247Z,49.05
2022-08-23T12:47:38.466Z,47.62
2022-08-23T12:50:20.353Z,47.45
2022-08-23T12:52:58.111Z,47.33
2022-08-23T12:55:31.760Z,47.97
2022-08-23T12:58:00.145Z,48.54
2022-08-23T13:00:31.406Z,48.17
2022-08-23T13:03:03.513Z,47.85
2022-08-23T13:05:37.179Z,48.24
2022-08-23T13:08:08.918Z,48.30
2022-08-23T13:10:39.221Z,47.44
2022-08-23T13:13:11.533Z,47.51
2022-08-23T13:15:46.327Z,47.15
2022-08-23T13:18:26.230Z,47.15
2022-08-23T13:21:18.443Z,47.22
2022-08-23T13:23:47.865Z,47.55
2022-08-23T13:26:37.758Z,48.98
2022-08-23T13:29:12.430Z,48.83
2022-08-23T13:31:56.362Z,47.59
2022-08-23T13:34:36.917Z,48.33
2022-08-23T13:37:17.853Z,48.58
2022-08-23T13:39:47.896Z,48.42
2022-08-23T13:42:15.917Z,48.28
2022-08-23T13:44:44.371Z,48.66
2022-08-23T13:47:23.317Z,48.87
2022-08-23T13:49:52.749Z,47.49
2022-08-23T13:55:08.507Z,48.05
2022-08-23T13:57:40.128Z,47.75
2022-08-23T14:00:10.802Z,47.55
2022-08-23T14:02:39.264Z,47.29
2022-08-23T14:05:09.598Z,47.75
2022-08-23T14:07:37.458Z,46.38
2022-08-23T14:10:05.910Z,46.91
2022-08-23T14:12:35.049Z,46.42
2022-08-23T14:15:03.513Z,46.64
2022-08-23T14:17:32.842Z,47.22
2022-08-23T14:22:52.356Z,46.70
2022-08-23T14:25:20.421Z,46.92
2022-08-23T14:27:49.358Z,46.86
2022-08-23T14:30:24.693Z,47.19
2022-08-23T14:32:58.028Z,47.32
2022-08-23T14:35:25.787Z,46.54
2022-08-23T14:38:03.814Z,46.92
2022-08-23T14:40:31.957Z,47.48
2022-08-23T14:42:59.768Z,46.99
2022-08-23T14:45:27.680Z,47.58
2022-08-23T14:47:55.448Z,47.75
2022-08-23T14:50:23.431Z,47.22
2022-08-23T14:52:51.202Z,46.85
2022-08-23T14:55:24.735Z,46.40
2022-08-23T14:57:52.787Z,47.14
2022-08-23T15:00:21.034Z,47.95
2022-08-23T15:02:50.063Z,47.07
2022-08-23T15:05:18.107Z,46.91
2022-08-23T15:07:46.011Z,47.61
2022-08-23T15:13:27.391Z,48.09
2022-08-23T15:15:53.020Z,46.70
2022-08-23T15:18:21.756Z,47.22
2022-08-23T15:20:49.489Z,47.79
2022-08-23T15:23:21.032Z,47.75
2022-08-23T15:25:49.956Z,47.80
2022-08-23T15:28:20.937Z,47.69
2022-08-23T15:30:50.038Z,47.51
2022-08-23T15:33:18.660Z,47.27
2022-08-23T15:35:51.661Z,47.26
2022-08-23T15:38:20.313Z,47.05
2022-08-23T15:40:49.704Z,47.44
2022-08-23T15:43:19.017Z,47.67
2022-08-23T15:45:46.881Z,47.52
2022-08-23T15:48:17.818Z,47.93
2022-08-23T15:50:47.634Z,48.34
2022-08-23T15:53:15.827Z,47.78
2022-08-23T15:55:45.068Z,48.28
2022-08-23T15:58:15.663Z,48.40
2022-08-23T16:00:45.085Z,47.76
2022-08-23T16:03:19.044Z,48.82
2022-08-23T16:05:49.888Z,48.98
2022-08-23T16:08:20.804Z,49.07
2022-08-23T16:10:48.564Z,49.25
2022-08-23T16:13:16.283Z,49.90
2022-08-23T16:15:45.488Z,49.62
2022-08-23T16:18:13.816Z,49.44
2022-08-23T16:20:41.888Z,49.48
2022-08-23T16:23:09.772Z,49.37
2022-08-23T16:25:37.897Z,49.17
2022-08-23T16:28:07.888Z,49.40
2022-08-23T16:30:36.881Z,49.06
2022-08-23T16:33:06.664Z,49.39
2022-08-23T16:35:34.366Z,49.73
2022-08-23T16:38:02.221Z,49.42
2022-08-23T16:40:30.138Z,49.54
2022-08-23T16:42:58.163Z,49.27
2022-08-23T16:45:26.490Z,49.72
2022-08-23T16:47:54.856Z,49.56
2022-08-23T16:50:23.961Z,49.31
2022-08-23T16:52:51.692Z,49.09
2022-08-23T16:55:19.611Z,48.88
2022-08-23T16:57:47.888Z,49.37
2022-08-23T17:00:16.144Z,49.25
2022-08-23T17:02:44.173Z,49.19
2022-08-23T17:05:15.276Z,48.89
2022-08-23T17:07:44.535Z,49.21
2022-08-23T17:10:14.243Z,49.09
2022-08-23T17:12:46.975Z,48.84
2022-08-23T17:15:18.880Z,48.84
2022-08-23T17:17:48.680Z,49.14
2022-08-23T17:20:16.983Z,49.35
2022-08-23T17:22:46.108Z,49.44
2022-08-23T17:25:15.366Z,49.42
2022-08-23T17:27:46.203Z,48.97
2022-08-23T17:30:16.966Z,48.99
2022-08-23T17:32:44.981Z,48.72
2022-08-23T17:35:15.049Z,48.37
2022-08-23T17:37:43.659Z,48.33
2022-08-23T17:40:16.270Z,48.86
2022-08-23T17:42:49.715Z,48.78
2022-08-23T17:45:19.027Z,48.20
2022-08-23T17:47:47.369Z,48.81
2022-08-23T17:50:15.554Z,48.35
2022-08-23T17:52:43.296Z,48.62
2022-08-23T17:55:11.040Z,48.67
2022-08-23T17:57:41.637Z,48.70
2022-08-23T18:00:11.333Z,49.00
2022-08-23T18:02:39.112Z,48.95
2022-08-23T18:05:07.836Z,48.97
2022-08-23T18:07:35.595Z,48.40
2022-08-23T18:10:07.012Z,49.22
2022-08-23T18:12:35.069Z,48.50
2022-08-23T18:15:07.363Z,48.83
2022-08-23T18:17:35.752Z,49.58
2022-08-23T18:20:08.148Z,49.05
2022-08-23T18:22:37.383Z,49.33
2022-08-23T18:25:05.613Z,49.65
2022-08-23T18:27:51.084Z,49.36
2022-08-23T18:30:20.222Z,49.75
2022-08-23T18:32:47.997Z,49.39
2022-08-23T18:35:15.785Z,49.66
2022-08-23T18:37:44.260Z,49.57
2022-08-23T18:40:12.989Z,49.55
2022-08-23T18:42:41.292Z,49.71
2022-08-23T18:45:10.189Z,49.80
2022-08-23T18:47:39.636Z,49.95
2022-08-23T18:50:09.512Z,50.05
2022-08-23T18:52:37.374Z,49.67
2022-08-23T18:55:06.228Z,49.66
2022-08-23T18:57:34.108Z,49.59
2022-08-23T19:00:03.028Z,50.21
2022-08-23T19:02:30.864Z,50.94
2022-08-23T19:04:59.972Z,50.43
2022-08-23T19:07:27.665Z,50.54
2022-08-23T19:09:55.366Z,50.95
2022-08-23T19:12:23.151Z,50.88
2022-08-23T19:14:50.915Z,50.49
2022-08-23T19:17:18.605Z,49.87
2022-08-23T19:19:46.292Z,50.36
2022-08-23T19:22:15.457Z,50.18
2022-08-23T19:24:43.324Z,50.57
2022-08-23T19:27:11.045Z,50.90
2022-08-23T19:29:38.779Z,50.95
2022-08-23T19:32:06.861Z,50.97
2022-08-23T19:34:35.528Z,50.83
2022-08-23T19:37:04.999Z,51.02
2022-08-23T19:39:39.940Z,51.10
2022-08-23T19:42:11.575Z,51.50
2022-08-23T19:44:39.709Z,50.90
2022-08-23T19:47:08.317Z,51.06
2022-08-23T19:49:48.361Z,51.09
2022-08-23T19:52:16.254Z,51.59
2022-08-23T19:54:45.325Z,50.84
2022-08-23T19:57:13.380Z,51.48
2022-08-23T19:59:41.240Z,51.32
2022-08-23T20:02:10.311Z,51.89
2022-08-23T20:04:38.132Z,51.37
2022-08-23T20:07:05.925Z,50.90
2022-08-23T20:09:34.710Z,51.99
2022-08-23T20:12:04.313Z,51.37
2022-08-23T20:14:34.000Z,51.76
2022-08-23T20:17:07.180Z,51.27
2022-08-23T20:19:35.481Z,51.46
2022-08-23T20:22:18.063Z,51.19
2022-08-23T20:24:52.401Z,51.62
2022-08-23T20:27:24.108Z,51.56
2022-08-23T20:29:59.672Z,51.54
2022-08-23T20:32:27.604Z,52.12
2022-08-23T20:34:55.347Z,51.89
2022-08-23T20:37:23.104Z,51.91
2022-08-23T20:39:52.141Z,52.53
2022-08-23T20:42:20.053Z,52.75
2022-08-23T20:44:49.259Z,52.47
2022-08-23T20:47:17.183Z,52.93
2022-08-23T20:49:45.105Z,52.80
2022-08-23T20:52:16.564Z,52.56
2022-08-23T20:54:44.856Z,53.01
2022-08-23T20:57:12.711Z,53.12
2022-08-23T20:59:44.454Z,53.52
2022-08-23T21:02:16.026Z,53.79
2022-08-23T21:04:43.796Z,53.50
2022-08-23T21:07:14.857Z,53.72
2022-08-23T21:09:42.568Z,54.07
2022-08-23T21:12:10.327Z,53.96
2022-08-23T21:14:38.040Z,53.78
2022-08-23T21:17:07.481Z,53.73
2022-08-23T21:19:37.948Z,54.30
2022-08-23T21:22:05.784Z,54.17
2022-08-23T21:24:33.893Z,54.50
2022-08-23T21:27:03.233Z,54.23
2022-08-23T21:29:38.444Z,55.25
2022-08-23T21:32:08.089Z,54.30
2022-08-23T21:34:37.153Z,54.53
2022-08-23T21:37:07.252Z,54.12
2022-08-23T21:39:35.189Z,54.53
2022-08-23T21:42:05.961Z,54.85
2022-08-23T21:44:43.685Z,54.62
2022-08-23T21:47:11.487Z,55.13
2022-08-23T21:49:40.847Z,55.44
2022-08-23T21:52:08.536Z,54.69
2022-08-23T21:54:39.173Z,54.58
2022-08-23T21:57:09.305Z,55.15
2022-08-23T21:59:37.488Z,54.69
2022-08-23T22:02:05.795Z,56.13
2022-08-23T22:04:33.713Z,55.50
2022-08-23T22:07:04.053Z,55.60
2022-08-23T22:09:32.072Z,55.63
2022-08-23T22:12:02.973Z,56.46
2022-08-23T22:14:31.939Z,56.45
2022-08-23T22:16:59.960Z,56.55
2022-08-23T22:19:28.737Z,55.88
2022-08-23T22:21:56.516Z,55.99
2022-08-23T22:24:26.428Z,56.01
2022-08-23T22:26:56.316Z,57.23
2022-08-23T22:29:24.327Z,57.26
2022-08-23T22:31:52.091Z,57.35
2022-08-23T22:34:19.813Z,58.51
2022-08-23T22:36:52.174Z,58.85
2022-08-23T22:39:20.919Z,57.67
2022-08-23T22:41:50.676Z,58.55
2022-08-23T22:44:19.301Z,58.00
2022-08-23T22:46:47.167Z,59.88
2022-08-23T22:49:14.963Z,59.54
2022-08-23T22:51:43.567Z,58.96
2022-08-23T22:54:12.288Z,59.07
2022-08-23T22:56:42.419Z,58.29
2022-08-23T22:59:11.842Z,57.08
2022-08-23T23:01:41.892Z,56.56
2022-08-23T23:04:13.928Z,56.37
2022-08-23T23:06:42.287Z,56.29
2022-08-23T23:09:12.809Z,55.89
2022-08-23T23:11:41.166Z,56.16
2022-08-23T23:14:11.564Z,56.25
2022-08-23T23:16:39.921Z,56.03
2022-08-23T23:19:25.728Z,55.66
2022-08-23T23:21:55.712Z,56.30
2022-08-23T23:24:25.689Z,56.65
2022-08-23T23:26:53.941Z,56.68
2022-08-23T23:29:23.128Z,56.84
2022-08-23T23:31:51.088Z,56.90
2022-08-23T23:34:18.827Z,57.42
2022-08-23T23:36:46.796Z,57.09
2022-08-23T23:39:15.848Z,57.83
2022-08-23T23:41:44.171Z,57.54
2022-08-23T23:44:11.945Z,57.69
2022-08-23T23:46:43.403Z,57.30
2022-08-23T23:49:13.089Z,57.28
2022-08-23T23:51:41.463Z,57.18
2022-08-23T23:54:09.216Z,57.35
2022-08-23T23:56:36.932Z,57.68
2022-08-23T23:59:04.865Z,58.17
